createdAt,value
2018-09-09T00:01:05.826Z,49.42
2018-09-09T00:03:38.018Z,49.72
2018-09-09T00:06:13.602Z,50.27
2018-09-09T00:08:43.217Z,50.33
2018-09-09T00:11:13.081Z,50.50
2018-09-09T00:13:42.388Z,49.95
2018-09-09T00:16:11.447Z,50.59
2018-09-09T00:18:40.816Z,51.12
2018-09-09T00:21:09.623Z,50.79
2018-09-09T00:23:39.271Z,50.87
2018-09-09T00:26:08.410Z,50.77
2018-09-09T00:28:37.650Z,50.44
2018-09-09T00:31:06.948Z,50.78
2018-09-09T00:33:35.865Z,50.82
2018-09-09T00:36:04.741Z,53.11
2018-09-09T00:38:33.799Z,51.48
2018-09-09T00:41:02.648Z,50.70
2018-09-09T00:43:31.773Z,50.99
2018-09-09T00:46:01.471Z,51.22
2018-09-09T00:48:31.136Z,50.89
2018-09-09T00:51:05.326Z,51.07
2018-09-09T00:53:39.489Z,51.05
2018-09-09T00:56:08.492Z,50.75
2018-09-09T00:58:38.204Z,51.18
2018-09-09T01:01:12.428Z,51.05
2018-09-09T01:03:41.654Z,51.56
2018-09-09T01:06:10.651Z,50.90
2018-09-09T01:08:39.566Z,51.06
2018-09-09T01:11:10.436Z,51.46
2018-09-09T01:13:39.337Z,51.63
2018-09-09T01:16:08.411Z,51.42
2018-09-09T01:18:37.463Z,51.04
2018-09-09T01:21:06.696Z,51.47
2018-09-09T01:23:35.713Z,51.49
2018-09-09T01:26:04.728Z,51.41
2018-09-09T01:28:33.854Z,51.21
2018-09-09T01:31:03.417Z,51.94
2018-09-09T01:33:33.010Z,51.68
2018-09-09T01:36:02.605Z,52.02
2018-09-09T01:38:31.541Z,51.32
2018-09-09T01:41:00.585Z,51.48
2018-09-09T01:43:29.490Z,51.74
2018-09-09T01:45:59.081Z,52.42
2018-09-09T01:48:29.192Z,52.99
2018-09-09T01:50:57.917Z,53.65
2018-09-09T01:53:27.653Z,52.34
2018-09-09T01:55:56.795Z,53.24
2018-09-09T01:58:25.596Z,51.81
2018-09-09T02:00:54.491Z,52.30
2018-09-09T02:03:23.504Z,51.89
2018-09-09T02:05:52.344Z,52.41
2018-09-09T02:08:21.276Z,52.66
2018-09-09T02:10:50.160Z,51.79
2018-09-09T02:13:19.137Z,51.93
2018-09-09T02:15:48.142Z,52.27
2018-09-09T02:18:17.158Z,53.13
2018-09-09T02:20:46.032Z,52.11
2018-09-09T02:23:15.067Z,52.29
2018-09-09T02:25:44.167Z,51.79
2018-09-09T02:28:13.050Z,52.62
2018-09-09T02:30:42.158Z,52.31
2018-09-09T02:33:11.561Z,53.02
2018-09-09T02:35:40.781Z,53.31
2018-09-09T02:38:09.924Z,53.11
2018-09-09T02:40:38.920Z,52.36
2018-09-09T02:43:08.276Z,52.08
2018-09-09T02:45:37.196Z,53.73
2018-09-09T02:48:06.059Z,53.06
2018-09-09T02:50:35.070Z,53.15
2018-09-09T02:53:04.091Z,53.87
2018-09-09T02:55:32.925Z,52.77
2018-09-09T02:58:02.469Z,53.58
2018-09-09T03:00:31.097Z,52.70
2018-09-09T03:03:00.325Z,53.02
2018-09-09T03:11:28.074Z,53.45
2018-09-09T03:13:57.204Z,52.74
2018-09-09T03:16:26.301Z,53.40
2018-09-09T03:18:56.704Z,52.75
2018-09-09T03:21:25.522Z,53.40
2018-09-09T03:23:54.359Z,53.25
2018-09-09T03:26:23.315Z,53.81
2018-09-09T03:28:52.490Z,53.38
2018-09-09T03:31:21.249Z,52.09
2018-09-09T03:33:50.135Z,52.76
2018-09-09T03:36:19.405Z,53.25
2018-09-09T03:38:48.497Z,53.16
2018-09-09T03:41:17.405Z,52.49
2018-09-09T03:43:47.073Z,52.91
2018-09-09T03:46:15.995Z,53.26
2018-09-09T03:48:44.885Z,53.31
2018-09-09T03:51:13.964Z,54.71
2018-09-09T03:53:43.031Z,52.68
2018-09-09T03:56:12.094Z,53.31
2018-09-09T03:58:41.263Z,53.08
2018-09-09T04:01:10.082Z,52.77
2018-09-09T04:03:38.837Z,53.32
2018-09-09T04:06:07.589Z,53.23
2018-09-09T04:08:36.667Z,53.35
2018-09-09T04:11:11.495Z,53.18
2018-09-09T04:13:42.084Z,53.31
2018-09-09T04:16:12.313Z,53.82
2018-09-09T04:18:43.003Z,53.40
2018-09-09T04:21:12.193Z,53.46
2018-09-09T04:23:41.196Z,54.09
2018-09-09T04:26:10.176Z,55.19
2018-09-09T04:28:39.145Z,53.74
2018-09-09T04:31:07.990Z,53.66
2018-09-09T04:33:36.913Z,54.14
2018-09-09T04:36:05.928Z,53.75
2018-09-09T04:38:34.966Z,54.27
2018-09-09T04:41:03.986Z,54.29
2018-09-09T04:43:33.110Z,54.39
2018-09-09T04:46:02.237Z,53.95
2018-09-09T04:48:31.416Z,54.17
2018-09-09T04:51:00.399Z,53.40
2018-09-09T04:53:29.314Z,53.53
2018-09-09T04:55:58.158Z,52.22
2018-09-09T04:58:27.171Z,53.04
2018-09-09T05:00:56.062Z,53.20
2018-09-09T05:03:24.947Z,52.92
2018-09-09T05:05:53.986Z,52.87
2018-09-09T05:08:23.016Z,52.72
2018-09-09T05:10:52.585Z,52.02
2018-09-09T05:13:21.877Z,52.27
2018-09-09T05:15:51.071Z,51.93
2018-09-09T05:18:19.786Z,51.65
2018-09-09T05:20:48.672Z,51.75
2018-09-09T05:23:17.503Z,51.17
2018-09-09T05:25:46.416Z,51.71
2018-09-09T05:28:15.175Z,52.22
2018-09-09T05:30:44.171Z,50.62
2018-09-09T05:33:13.332Z,51.88
2018-09-09T05:35:42.493Z,52.74
2018-09-09T05:38:11.673Z,52.74
2018-09-09T05:40:40.641Z,49.74
2018-09-09T05:43:09.378Z,50.00
2018-09-09T05:45:38.008Z,50.34
2018-09-09T05:48:07.407Z,51.28
2018-09-09T05:50:37.245Z,50.27
2018-09-09T05:53:06.853Z,50.15
2018-09-09T05:55:35.736Z,50.58
2018-09-09T05:58:04.670Z,50.87
2018-09-09T06:00:33.606Z,51.30
2018-09-09T06:03:02.617Z,48.73
2018-09-09T06:05:31.552Z,51.18
2018-09-09T06:08:00.417Z,49.77
2018-09-09T06:10:29.544Z,49.54
2018-09-09T06:12:58.434Z,49.48
2018-09-09T06:15:27.397Z,48.91
2018-09-09T06:17:56.755Z,49.22
2018-09-09T06:20:25.715Z,49.64
2018-09-09T06:22:54.594Z,49.55
2018-09-09T06:25:23.748Z,49.50
2018-09-09T06:27:52.707Z,48.91
2018-09-09T06:30:21.510Z,47.91
2018-09-09T06:32:50.947Z,47.24
2018-09-09T06:35:20.247Z,47.39
2018-09-09T06:37:49.292Z,46.98
2018-09-09T06:40:18.317Z,46.80
2018-09-09T06:42:47.820Z,47.18
2018-09-09T06:45:16.884Z,46.80
2018-09-09T06:47:46.163Z,47.10
2018-09-09T06:50:15.035Z,45.70
2018-09-09T06:52:44.017Z,48.33
2018-09-09T06:55:13.223Z,47.15
2018-09-09T06:57:48.622Z,45.21
2018-09-09T07:00:17.956Z,46.26
2018-09-09T07:02:47.185Z,45.77
2018-09-09T07:05:17.084Z,45.84
2018-09-09T07:07:45.925Z,46.48
2018-09-09T07:10:15.513Z,45.78
2018-09-09T07:12:44.635Z,45.55
2018-09-09T07:15:13.655Z,45.45
2018-09-09T07:17:42.615Z,45.36
2018-09-09T07:20:11.562Z,45.31
2018-09-09T07:22:42.260Z,45.11
2018-09-09T07:25:11.123Z,44.63
2018-09-09T07:27:39.948Z,44.44
2018-09-09T07:30:09.087Z,45.12
2018-09-09T07:32:38.251Z,44.49
2018-09-09T07:35:07.176Z,44.17
2018-09-09T07:37:36.204Z,43.47
2018-09-09T07:40:05.050Z,42.78
2018-09-09T07:42:36.585Z,42.40
2018-09-09T07:45:05.580Z,42.21
2018-09-09T07:47:34.826Z,41.82
2018-09-09T07:50:03.699Z,40.48
2018-09-09T07:52:32.739Z,40.33
2018-09-09T07:55:01.682Z,40.13
2018-09-09T07:57:30.652Z,40.07
2018-09-09T07:59:59.427Z,39.32
2018-09-09T08:02:28.351Z,39.26
2018-09-09T08:04:57.351Z,39.05
2018-09-09T08:07:26.145Z,38.37
2018-09-09T08:09:55.081Z,38.39
2018-09-09T08:12:24.901Z,38.03
2018-09-09T08:14:53.857Z,37.57
2018-09-09T08:17:22.871Z,37.07
2018-09-09T08:19:51.894Z,37.56
2018-09-09T08:22:20.905Z,36.39
2018-09-09T08:24:50.031Z,36.82
2018-09-09T08:27:19.081Z,37.35
2018-09-09T08:29:47.973Z,36.51
2018-09-09T08:35:43.819Z,36.73
2018-09-09T08:38:12.692Z,36.79
2018-09-09T08:40:42.982Z,37.17
2018-09-09T08:43:12.093Z,36.72
2018-09-09T08:45:41.147Z,35.65
2018-09-09T08:48:10.005Z,34.66
2018-09-09T08:50:38.684Z,35.30
2018-09-09T08:53:07.702Z,35.17
2018-09-09T08:55:36.476Z,35.14
2018-09-09T08:58:05.365Z,34.98
2018-09-09T09:00:34.197Z,34.39
2018-09-09T09:03:03.066Z,33.12
2018-09-09T09:05:31.837Z,33.71
2018-09-09T09:08:01.466Z,32.48
2018-09-09T09:10:30.505Z,32.31
2018-09-09T09:12:59.532Z,32.75
2018-09-09T09:15:28.598Z,31.61
2018-09-09T09:17:57.356Z,32.36
2018-09-09T09:20:26.271Z,32.29
2018-09-09T09:22:55.196Z,31.19
2018-09-09T09:25:24.115Z,29.71
2018-09-09T09:27:52.847Z,29.80
2018-09-09T09:30:21.898Z,29.08
2018-09-09T09:32:51.416Z,29.60
2018-09-09T09:35:20.056Z,29.40
2018-09-09T09:37:49.585Z,28.57
2018-09-09T09:40:18.625Z,28.12
2018-09-09T09:42:47.592Z,28.41
2018-09-09T09:45:16.511Z,27.47
2018-09-09T09:47:45.321Z,27.49
2018-09-09T09:50:14.219Z,27.13
2018-09-09T09:52:48.068Z,27.27
2018-09-09T09:55:16.834Z,26.88
2018-09-09T09:57:45.561Z,27.21
2018-09-09T10:00:19.447Z,26.53
2018-09-09T10:02:48.660Z,26.60
2018-09-09T10:05:19.017Z,26.21
2018-09-09T10:07:47.753Z,25.87
2018-09-09T10:10:17.222Z,26.08
2018-09-09T10:12:46.015Z,25.58
2018-09-09T10:15:15.067Z,25.40
2018-09-09T10:17:45.933Z,24.83
2018-09-09T10:20:14.912Z,24.49
2018-09-09T10:22:43.951Z,23.99
2018-09-09T10:25:12.716Z,25.81
2018-09-09T10:27:41.748Z,27.20
2018-09-09T10:30:12.292Z,26.08
2018-09-09T10:32:41.271Z,25.10
2018-09-09T10:35:10.120Z,24.79
2018-09-09T10:37:39.038Z,24.31
2018-09-09T10:40:08.932Z,25.23
2018-09-09T10:42:37.766Z,25.36
2018-09-09T10:45:07.050Z,24.51
2018-09-09T10:47:35.943Z,24.70
2018-09-09T10:52:57.252Z,25.23
2018-09-09T10:55:26.088Z,23.76
2018-09-09T10:57:55.011Z,23.74
2018-09-09T11:00:24.441Z,23.62
2018-09-09T11:02:55.656Z,24.27
2018-09-09T11:05:24.657Z,23.79
2018-09-09T11:07:55.956Z,23.19
2018-09-09T11:10:27.845Z,23.53
2018-09-09T11:12:56.903Z,24.01
2018-09-09T11:15:25.861Z,23.06
2018-09-09T11:17:55.342Z,24.23
2018-09-09T11:20:24.243Z,25.15
2018-09-09T11:22:53.101Z,24.32
2018-09-09T11:25:22.165Z,23.83
2018-09-09T11:27:50.925Z,22.96
2018-09-09T11:30:19.804Z,23.78
2018-09-09T11:32:48.675Z,23.52
2018-09-09T11:36:33.312Z,22.49
2018-09-09T11:39:02.524Z,22.74
2018-09-09T11:41:31.428Z,22.28
2018-09-09T11:44:00.491Z,21.90
2018-09-09T11:46:29.284Z,21.13
2018-09-09T11:48:58.237Z,21.80
2018-09-09T11:51:27.364Z,21.87
2018-09-09T11:53:56.749Z,20.46
2018-09-09T11:56:25.604Z,19.45
2018-09-09T11:58:54.891Z,17.84
2018-09-09T12:01:23.871Z,17.46
2018-09-09T12:03:52.761Z,16.41
2018-09-09T12:06:21.651Z,16.03
2018-09-09T12:08:50.433Z,14.63
2018-09-09T12:11:20.110Z,13.33
2018-09-09T12:13:49.272Z,12.84
2018-09-09T12:16:18.591Z,12.95
2018-09-09T12:18:47.704Z,12.11
2018-09-09T12:21:17.055Z,11.57
2018-09-09T12:23:47.057Z,10.98
2018-09-09T12:26:17.868Z,9.33
2018-09-09T12:28:46.906Z,8.71
2018-09-09T12:31:16.509Z,8.87
2018-09-09T12:33:45.516Z,11.43
2018-09-09T12:36:14.504Z,11.02
2018-09-09T12:38:43.517Z,10.13
2018-09-09T12:41:12.366Z,7.90
2018-09-09T12:43:46.437Z,8.72
2018-09-09T12:46:20.874Z,10.29
2018-09-09T12:48:54.685Z,8.95
2018-09-09T12:51:23.635Z,9.04
2018-09-09T12:53:52.394Z,8.71
2018-09-09T12:56:21.226Z,8.55
2018-09-09T12:58:50.168Z,9.37
2018-09-09T13:01:19.562Z,9.99
2018-09-09T13:03:48.658Z,9.73
2018-09-09T13:06:17.922Z,10.21
2018-09-09T13:08:46.727Z,10.62
2018-09-09T13:11:16.069Z,9.99
2018-09-09T13:13:44.817Z,9.06
2018-09-09T13:16:13.606Z,9.42
2018-09-09T13:18:42.702Z,8.37
2018-09-09T13:21:11.693Z,6.48
2018-09-09T13:23:40.685Z,6.46
2018-09-09T13:26:09.514Z,6.60
2018-09-09T13:28:38.318Z,7.24
2018-09-09T13:31:07.012Z,7.52
2018-09-09T13:33:35.892Z,8.21
2018-09-09T13:36:04.742Z,7.15
2018-09-09T13:38:33.841Z,6.77
2018-09-09T13:41:02.792Z,7.38
2018-09-09T13:43:31.971Z,8.83
2018-09-09T13:46:00.939Z,8.52
2018-09-09T13:48:30.740Z,7.14
2018-09-09T13:50:59.982Z,7.51
2018-09-09T13:53:29.794Z,8.18
2018-09-09T13:55:58.503Z,7.77
2018-09-09T13:58:27.529Z,10.13
2018-09-09T14:00:56.381Z,9.57
2018-09-09T14:03:25.072Z,10.24
2018-09-09T14:05:54.023Z,8.48
2018-09-09T14:08:22.806Z,8.92
2018-09-09T14:10:51.735Z,7.71
2018-09-09T14:13:20.612Z,8.68
2018-09-09T14:15:49.776Z,8.13
2018-09-09T14:18:18.515Z,7.08
2018-09-09T14:20:47.316Z,7.97
2018-09-09T14:23:16.181Z,6.81
2018-09-09T14:25:45.098Z,7.71
2018-09-09T14:28:13.870Z,8.13
2018-09-09T14:30:42.853Z,7.92
2018-09-09T14:33:11.798Z,8.28
2018-09-09T14:35:40.700Z,8.57
2018-09-09T14:38:09.631Z,7.99
2018-09-09T14:40:38.419Z,6.85
2018-09-09T14:43:07.574Z,6.42
2018-09-09T14:45:36.349Z,7.53
2018-09-09T14:48:05.036Z,7.28
2018-09-09T14:50:34.017Z,7.61
2018-09-09T14:53:03.206Z,8.29
2018-09-09T14:55:32.700Z,8.78
2018-09-09T14:58:01.619Z,7.88
2018-09-09T15:00:30.609Z,7.14
2018-09-09T15:02:59.581Z,7.69
2018-09-09T15:05:28.411Z,8.25
2018-09-09T15:07:57.170Z,8.34
2018-09-09T15:10:25.978Z,8.08
2018-09-09T15:12:54.819Z,7.70
2018-09-09T15:15:24.327Z,6.52
2018-09-09T15:17:53.082Z,6.77
2018-09-09T15:20:23.057Z,6.59
2018-09-09T15:22:51.970Z,7.89
2018-09-09T15:25:20.578Z,7.61
2018-09-09T15:27:50.212Z,6.87
2018-09-09T15:30:19.770Z,6.81
2018-09-09T15:32:48.643Z,6.87
2018-09-09T15:35:17.536Z,7.57
2018-09-09T15:37:46.656Z,8.15
2018-09-09T15:40:15.621Z,6.84
2018-09-09T15:42:44.285Z,7.42
2018-09-09T15:45:13.694Z,8.09
2018-09-09T15:47:42.733Z,7.88
2018-09-09T15:50:12.076Z,7.73
2018-09-09T15:52:40.943Z,7.93
2018-09-09T15:55:09.810Z,7.40
2018-09-09T15:57:38.536Z,8.36
2018-09-09T16:00:07.686Z,7.60
2018-09-09T16:02:36.399Z,8.20
2018-09-09T16:05:05.317Z,9.65
2018-09-09T16:07:34.293Z,8.87
2018-09-09T16:10:04.180Z,8.75
2018-09-09T16:12:32.914Z,8.43
2018-09-09T16:15:02.293Z,7.52
2018-09-09T16:17:31.535Z,7.65
2018-09-09T16:20:00.842Z,7.79
2018-09-09T16:22:30.145Z,8.87
2018-09-09T16:24:59.021Z,9.27
2018-09-09T16:27:27.879Z,9.67
2018-09-09T16:29:56.865Z,9.43
2018-09-09T16:32:25.657Z,8.78
2018-09-09T16:34:54.575Z,9.93
2018-09-09T16:37:23.309Z,9.17
2018-09-09T16:39:52.330Z,10.38
2018-09-09T16:42:21.478Z,12.01
2018-09-09T16:44:50.341Z,13.07
2018-09-09T16:47:19.424Z,14.36
2018-09-09T16:49:48.162Z,16.24
2018-09-09T16:52:17.168Z,17.42
2018-09-09T16:54:45.950Z,18.01
2018-09-09T16:57:15.180Z,18.22
2018-09-09T16:59:44.491Z,19.56
2018-09-09T17:02:13.675Z,19.52
2018-09-09T17:04:42.715Z,20.51
2018-09-09T17:07:12.102Z,20.97
2018-09-09T17:09:41.869Z,21.54
2018-09-09T17:12:10.832Z,21.69
2018-09-09T17:14:39.871Z,22.79
2018-09-09T17:17:08.760Z,23.08
2018-09-09T17:19:38.121Z,23.83
2018-09-09T17:22:07.452Z,23.13
2018-09-09T17:24:36.533Z,23.62
2018-09-09T17:27:06.103Z,24.04
2018-09-09T17:29:35.267Z,23.83
2018-09-09T17:32:04.177Z,23.85
2018-09-09T17:34:32.927Z,24.47
2018-09-09T17:37:02.347Z,24.92
2018-09-09T17:39:31.424Z,25.52
2018-09-09T17:42:00.245Z,26.00
2018-09-09T17:44:29.078Z,26.19
2018-09-09T17:46:58.447Z,26.39
2018-09-09T17:49:27.433Z,26.67
2018-09-09T17:51:56.381Z,26.62
2018-09-09T17:54:25.279Z,26.69
2018-09-09T17:56:55.100Z,27.20
2018-09-09T17:59:24.075Z,28.68
2018-09-09T18:01:52.904Z,31.06
2018-09-09T18:04:21.655Z,27.91
2018-09-09T18:06:50.731Z,27.69
2018-09-09T18:09:20.984Z,28.88
2018-09-09T18:11:50.422Z,27.85
2018-09-09T18:14:19.196Z,28.20
2018-09-09T18:16:48.272Z,28.26
2018-09-09T18:19:17.170Z,27.62
2018-09-09T18:21:50.639Z,28.27
2018-09-09T18:24:20.125Z,27.74
2018-09-09T18:26:49.680Z,27.75
2018-09-09T18:29:19.184Z,28.09
2018-09-09T18:31:48.208Z,29.20
2018-09-09T18:34:17.676Z,29.32
2018-09-09T18:36:47.175Z,29.21
2018-09-09T18:39:16.249Z,29.51
2018-09-09T18:41:44.904Z,29.47
2018-09-09T18:44:14.133Z,29.87
2018-09-09T18:46:43.572Z,30.06
2018-09-09T18:49:13.171Z,29.91
2018-09-09T18:51:42.195Z,30.03
2018-09-09T18:54:11.215Z,30.24
2018-09-09T18:56:40.343Z,31.21
2018-09-09T18:59:09.556Z,30.36
2018-09-09T19:01:39.229Z,31.19
2018-09-09T19:04:07.889Z,31.08
2018-09-09T19:06:39.771Z,31.12
2018-09-09T19:09:09.596Z,30.77
2018-09-09T19:11:38.276Z,31.47
2018-09-09T19:14:07.042Z,31.51
2018-09-09T19:16:36.459Z,31.66
2018-09-09T19:19:05.288Z,31.71
2018-09-09T19:21:34.327Z,32.23
2018-09-09T19:24:03.129Z,32.12
2018-09-09T19:26:32.434Z,32.51
2018-09-09T19:29:01.574Z,33.00
2018-09-09T19:31:30.505Z,33.96
2018-09-09T19:33:59.373Z,34.06
2018-09-09T19:37:31.479Z,33.56
2018-09-09T19:40:00.416Z,33.16
2018-09-09T19:42:29.858Z,33.17
2018-09-09T19:44:58.821Z,33.85
2018-09-09T19:47:27.963Z,33.89
2018-09-09T19:49:56.910Z,35.03
2018-09-09T19:52:26.327Z,33.46
2018-09-09T19:54:57.435Z,34.14
2018-09-09T19:57:30.364Z,35.04
2018-09-09T20:00:00.479Z,35.57
2018-09-09T20:02:31.604Z,36.08
2018-09-09T20:05:00.781Z,36.96
2018-09-09T20:07:30.237Z,36.71
2018-09-09T20:09:59.202Z,37.68
2018-09-09T20:12:29.592Z,37.68
2018-09-09T20:14:58.772Z,38.21
2018-09-09T20:17:27.545Z,38.75
2018-09-09T20:19:56.530Z,38.73
2018-09-09T20:22:25.725Z,38.86
2018-09-09T20:24:54.458Z,39.90
2018-09-09T20:27:23.465Z,40.26
2018-09-09T20:29:52.301Z,40.30
2018-09-09T20:32:21.255Z,40.44
2018-09-09T20:34:50.367Z,40.51
2018-09-09T20:37:19.946Z,40.69
2018-09-09T20:39:48.950Z,41.54
2018-09-09T20:42:17.866Z,41.70
2018-09-09T20:44:46.655Z,41.05
2018-09-09T20:47:15.604Z,41.91
2018-09-09T20:49:44.609Z,41.43
2018-09-09T20:52:13.933Z,42.70
2018-09-09T20:54:43.239Z,42.22
2018-09-09T20:57:12.191Z,42.45
2018-09-09T20:59:41.211Z,42.64
2018-09-09T21:02:10.703Z,42.47
2018-09-09T21:04:39.670Z,42.38
2018-09-09T21:07:10.075Z,42.47
2018-09-09T21:09:39.271Z,42.46
2018-09-09T21:12:08.325Z,42.78
2018-09-09T21:14:37.020Z,42.97
2018-09-09T21:17:08.885Z,43.23
2018-09-09T21:19:40.016Z,43.44
2018-09-09T21:22:09.137Z,43.55
2018-09-09T21:24:37.951Z,43.62
2018-09-09T21:27:07.745Z,43.74
2018-09-09T21:29:36.665Z,44.20
2018-09-09T21:32:06.868Z,44.02
2018-09-09T21:34:35.855Z,44.51
2018-09-09T21:37:05.237Z,44.10
2018-09-09T21:39:34.231Z,44.33
2018-09-09T21:42:03.480Z,44.64
2018-09-09T21:44:32.457Z,44.89
2018-09-09T21:47:01.443Z,44.75
2018-09-09T21:49:30.497Z,45.20
2018-09-09T21:51:59.584Z,45.05
2018-09-09T21:54:28.513Z,44.77
2018-09-09T21:56:57.433Z,44.85
2018-09-09T21:59:26.258Z,45.40
2018-09-09T22:02:00.847Z,45.25
2018-09-09T22:04:30.760Z,46.07
2018-09-09T22:07:00.745Z,45.95
2018-09-09T22:09:29.696Z,46.22
2018-09-09T22:11:58.735Z,45.76
2018-09-09T22:14:27.418Z,46.56
2018-09-09T22:16:56.919Z,46.43
2018-09-09T22:19:25.782Z,45.57
2018-09-09T22:21:55.054Z,46.51
2018-09-09T22:24:24.108Z,46.04
2018-09-09T22:26:53.829Z,45.97
2018-09-09T22:29:24.005Z,46.60
2018-09-09T22:31:57.994Z,46.45
2018-09-09T22:34:27.372Z,46.88
2018-09-09T22:36:57.475Z,47.38
2018-09-09T22:39:26.226Z,47.29
2018-09-09T22:41:55.278Z,47.48
2018-09-09T22:44:24.104Z,47.28
2018-09-09T22:46:53.350Z,48.07
2018-09-09T22:49:22.322Z,48.04
2018-09-09T22:51:52.421Z,47.69
2018-09-09T22:54:21.329Z,47.88
2018-09-09T22:56:50.319Z,47.66
2018-09-09T22:59:19.117Z,47.87
2018-09-09T23:01:48.229Z,48.35
2018-09-09T23:04:17.824Z,48.03
2018-09-09T23:06:47.294Z,47.63
2018-09-09T23:09:16.290Z,48.12
2018-09-09T23:11:45.279Z,48.12
2018-09-09T23:14:14.691Z,48.84
2018-09-09T23:16:43.790Z,48.42
2018-09-09T23:19:12.953Z,48.35
2018-09-09T23:21:42.341Z,48.40
2018-09-09T23:24:11.389Z,49.53
2018-09-09T23:26:40.439Z,48.94
2018-09-09T23:29:09.135Z,48.45
2018-09-09T23:31:38.014Z,48.59
2018-09-09T23:34:06.807Z,48.87
2018-09-09T23:36:35.820Z,49.86
2018-09-09T23:39:06.482Z,49.10
2018-09-09T23:41:35.388Z,49.02
2018-09-09T23:44:04.557Z,48.60
2018-09-09T23:46:33.895Z,49.26
2018-09-09T23:49:03.734Z,49.12
2018-09-09T23:51:33.008Z,49.46
2018-09-09T23:54:01.947Z,49.86
2018-09-09T23:56:30.944Z,49.57
2018-09-09T23:59:00.034Z,49.05
